createdAt,value
2023-02-15T00:01:43.041Z,102977.92
2023-02-15T00:04:14.170Z,102976.65999999999
2023-02-15T00:06:42.406Z,102975.84
2023-02-15T00:09:13.199Z,102977.47
2023-02-15T00:11:44.962Z,102978.93999999999
2023-02-15T00:14:15.570Z,102974.99
2023-02-15T00:16:44.038Z,102974.62000000001
2023-02-15T00:19:14.643Z,102975.35
2023-02-15T00:21:43.137Z,102978.67000000001
2023-02-15T00:24:14.509Z,102982.41
2023-02-15T00:26:43.687Z,102977.31000000001
2023-02-15T00:29:14.543Z,102971.57999999999
2023-02-15T00:31:42.461Z,102971.32999999999
2023-02-15T00:34:16.711Z,102967.64
2023-02-15T00:36:42.828Z,102960.57
2023-02-15T00:39:13.324Z,102950.89
2023-02-15T00:41:42.661Z,102948.38
2023-02-15T00:44:13.656Z,102949.37999999999
2023-02-15T00:46:42.452Z,102944.18000000001
2023-02-15T00:49:12.381Z,102935.73
2023-02-15T00:51:42.748Z,102936.99999999999
2023-02-15T00:54:12.439Z,102938.29000000001
2023-02-15T00:56:43.327Z,102932.08
2023-02-15T00:59:12.370Z,102933.95000000001
2023-02-15T01:01:42.507Z,102932.57
2023-02-15T01:04:13.005Z,102935.53
2023-02-15T01:06:42.654Z,102931.88
2023-02-15T01:09:13.617Z,102932.08
2023-02-15T01:11:42.528Z,102931.31000000001
2023-02-15T01:14:13.217Z,102932.57
2023-02-15T01:16:42.660Z,102933.58
2023-02-15T01:19:14.074Z,102927.86000000002
2023-02-15T01:21:42.435Z,102924.43000000001
2023-02-15T01:24:13.864Z,102921.34000000001
2023-02-15T01:26:42.541Z,102922.27
2023-02-15T01:29:12.405Z,102920.37
2023-02-15T01:31:42.708Z,102918.31999999999
2023-02-15T01:34:12.365Z,102918.46
2023-02-15T01:36:42.674Z,102914.28000000001
2023-02-15T01:39:12.419Z,102910.67
2023-02-15T01:41:43.326Z,102902.31000000001
2023-02-15T01:44:32.287Z,102891.31
2023-02-15T01:46:50.707Z,102893.23999999999
2023-02-15T01:49:16.599Z,102891.74
2023-02-15T01:51:45.379Z,102887.46
2023-02-15T01:54:22.367Z,102884.99999999999
2023-02-15T01:56:42.577Z,102885.39000000001
2023-02-15T01:59:17.011Z,102882.21
2023-02-15T02:01:43.678Z,102879.45999999999
2023-02-15T02:04:18.424Z,102874.26000000001
2023-02-15T02:06:44.450Z,102868.43
2023-02-15T02:09:12.804Z,102862.62
2023-02-15T02:11:46.357Z,102862.07999999999
2023-02-15T02:14:12.875Z,102860.23
2023-02-15T02:16:53.153Z,102858.12000000001
2023-02-15T02:19:32.113Z,102855.97
2023-02-15T02:21:59.694Z,102846.88
2023-02-15T02:24:30.892Z,102838.92000000001
2023-02-15T02:27:01.863Z,102837.9
2023-02-15T02:29:32.129Z,102839.86
2023-02-15T02:31:58.218Z,102837.49
2023-02-15T02:34:20.108Z,102832.14
2023-02-15T02:36:50.597Z,102830.58000000002
2023-02-15T02:39:24.089Z,102830.10999999999
2023-02-15T02:41:55.840Z,102831.98
2023-02-15T02:44:18.629Z,102836.43999999999
2023-02-15T02:46:49.180Z,102833.84000000001
2023-02-15T02:49:12.537Z,102830.47999999998
2023-02-15T02:51:42.538Z,102827.4
2023-02-15T02:56:46.232Z,102825.12
2023-02-15T02:59:17.738Z,102824.93
2023-02-15T03:01:47.720Z,102823.84999999999
2023-02-15T03:04:16.265Z,102814.45000000001
2023-02-15T03:06:47.457Z,102817.48999999999
2023-02-15T03:09:17.970Z,102812.57
2023-02-15T03:11:43.995Z,102810.97
2023-02-15T03:14:14.601Z,102805.98999999999
2023-02-15T03:16:46.896Z,102805.79000000001
2023-02-15T03:19:16.657Z,102805.07
2023-02-15T03:21:49.420Z,102804.73999999999
2023-02-15T03:24:16.772Z,102806.37
2023-02-15T03:26:45.425Z,102806.07
2023-02-15T03:29:13.728Z,102799.43000000001
2023-02-15T03:31:47.725Z,102792.58
2023-02-15T03:34:15.279Z,102791.04999999999
2023-02-15T03:39:19.717Z,102791.15999999999
2023-02-15T03:41:47.922Z,102790.83
2023-02-15T03:44:19.088Z,102786.57
2023-02-15T03:46:48.193Z,102788.00000000001
2023-02-15T03:49:18.162Z,102784.17
2023-02-15T03:51:46.416Z,102782.52
2023-02-15T03:54:26.840Z,102784.53
2023-02-15T03:56:52.556Z,102777.2
2023-02-15T03:59:22.243Z,102772.85999999999
2023-02-15T04:01:58.401Z,102766.63
2023-02-15T04:04:18.313Z,102764.18000000001
2023-02-15T04:06:42.392Z,102761.18
2023-02-15T04:09:23.120Z,102757.63999999998
2023-02-15T04:11:42.578Z,102760.34
2023-02-15T04:14:22.422Z,102762.34999999999
2023-02-15T04:16:42.588Z,102761.25
2023-02-15T04:19:22.256Z,102758.35999999999
2023-02-15T04:21:52.321Z,102757.55999999998
2023-02-15T04:24:23.148Z,102757.13
2023-02-15T04:29:13.784Z,102754.81999999999
2023-02-15T04:31:43.021Z,102754.10999999999
2023-02-15T04:34:12.484Z,102753.86000000002
2023-02-15T04:36:43.453Z,102755.0
2023-02-15T04:39:13.623Z,102749.93999999999
2023-02-15T04:41:42.771Z,102754.7
2023-02-15T04:44:12.774Z,102750.04
2023-02-15T04:46:42.504Z,102743.48999999999
2023-02-15T04:49:12.930Z,102740.14
2023-02-15T04:51:43.926Z,102735.35999999999
2023-02-15T04:54:12.381Z,102733.15
2023-02-15T04:56:42.695Z,102727.93
2023-02-15T04:59:12.829Z,102727.19
2023-02-15T05:01:42.435Z,102723.55
2023-02-15T05:06:42.893Z,102722.64
2023-02-15T05:11:42.820Z,102717.96999999999
2023-02-15T05:14:12.915Z,102719.07
2023-02-15T05:16:42.551Z,102719.82
2023-02-15T05:21:42.485Z,102717.59
2023-02-15T05:24:22.277Z,102716.04999999999
2023-02-15T05:26:52.369Z,102715.52999999998
2023-02-15T05:29:12.404Z,102712.01000000001
2023-02-15T05:34:12.457Z,102708.33
2023-02-15T05:36:43.528Z,102707.43
2023-02-15T05:44:12.495Z,102706.68000000001
2023-02-15T05:49:12.892Z,102699.21999999999
2023-02-15T05:51:42.402Z,102701.68000000001
2023-02-15T05:54:12.967Z,102701.68000000001
2023-02-15T06:04:13.230Z,102696.13999999998
2023-02-15T06:06:42.407Z,102691.74
2023-02-15T06:19:12.947Z,102685.07999999999
2023-02-15T06:24:12.960Z,102676.16
2023-02-15T06:26:42.406Z,102677.42000000001
2023-02-15T06:29:13.101Z,102679.73999999999
2023-02-15T06:31:42.732Z,102682.81999999999
2023-02-15T06:34:12.478Z,102677.2
2023-02-15T06:36:42.744Z,102681.34999999999
2023-02-15T06:39:12.527Z,102683.18
2023-02-15T06:41:42.630Z,102685.86
2023-02-15T06:44:12.740Z,102687.77
2023-02-15T06:46:42.611Z,102692.75
2023-02-15T06:49:12.908Z,102691.7
2023-02-15T06:51:42.589Z,102686.25
2023-02-15T06:54:12.909Z,102693.29000000001
2023-02-15T06:56:43.571Z,102694.78
2023-02-15T06:59:12.800Z,102689.9
2023-02-15T07:01:42.456Z,102691.52999999998
2023-02-15T07:04:12.794Z,102689.98999999999
2023-02-15T07:06:42.484Z,102687.66
2023-02-15T07:09:13.150Z,102681.65
2023-02-15T07:11:52.714Z,102681.09999999999
2023-02-15T07:14:12.779Z,102673.12
2023-02-15T07:16:42.744Z,102675.09999999999
2023-02-15T07:19:12.492Z,102682.90999999999
2023-02-15T07:21:44.066Z,102684.17
2023-02-15T07:24:12.415Z,102680.43000000001
2023-02-15T07:26:42.487Z,102676.68000000001
2023-02-15T07:29:12.953Z,102676.72
2023-02-15T07:34:12.599Z,102669.87
2023-02-15T07:36:44.034Z,102668.36
2023-02-15T07:39:13.063Z,102671.57999999999
2023-02-15T07:41:42.470Z,102671.94
2023-02-15T07:44:13.940Z,102670.46
2023-02-15T07:46:42.608Z,102665.87
2023-02-15T07:49:12.634Z,102666.19
2023-02-15T07:51:42.658Z,102665.77
2023-02-15T07:54:12.628Z,102663.31999999999
2023-02-15T07:59:13.317Z,102657.97
2023-02-15T08:01:42.519Z,102651.37
2023-02-15T08:04:12.823Z,102645.46
2023-02-15T08:06:42.454Z,102642.86
2023-02-15T08:09:12.514Z,102642.4
2023-02-15T08:11:43.065Z,102643.15
2023-02-15T08:14:15.049Z,102640.09000000001
2023-02-15T08:16:44.734Z,102632.84000000001
2023-02-15T08:19:16.997Z,102636.45
2023-02-15T08:21:44.857Z,102632.5
2023-02-15T08:24:14.883Z,102628.7
2023-02-15T08:26:45.260Z,102619.04
2023-02-15T08:29:13.719Z,102614.47
2023-02-15T08:31:43.162Z,102616.32999999999
2023-02-15T08:34:16.192Z,102617.14
2023-02-15T08:36:45.043Z,102616.58
2023-02-15T08:39:14.213Z,102611.89
2023-02-15T08:41:44.468Z,102609.20000000001
2023-02-15T08:44:14.682Z,102605.31000000001
2023-02-15T08:46:44.950Z,102602.61
2023-02-15T08:49:15.827Z,102600.17
2023-02-15T08:51:42.676Z,102597.12
2023-02-15T08:54:14.764Z,102590.52999999998
2023-02-15T08:56:43.922Z,102591.5
2023-02-15T08:59:15.384Z,102595.47
2023-02-15T09:04:13.061Z,102594.89000000001
2023-02-15T09:09:12.769Z,102587.18
2023-02-15T09:11:44.992Z,102584.84000000001
2023-02-15T09:14:14.540Z,102582.62999999999
2023-02-15T09:16:46.186Z,102578.98
2023-02-15T09:19:13.226Z,102581.16
2023-02-15T09:21:42.678Z,102580.32
2023-02-15T09:24:15.547Z,102583.33
2023-02-15T09:26:44.508Z,102583.86
2023-02-15T09:29:13.657Z,102585.66
2023-02-15T09:31:45.951Z,102581.58
2023-02-15T09:34:13.623Z,102582.86
2023-02-15T09:36:43.297Z,102580.15000000001
2023-02-15T09:39:15.558Z,102580.69
2023-02-15T09:42:02.388Z,102576.28
2023-02-15T09:44:24.194Z,102578.82999999999
2023-02-15T09:47:02.317Z,102577.97
2023-02-15T09:49:23.471Z,102576.83
2023-02-15T09:52:00.156Z,102573.93999999999
2023-02-15T09:54:28.412Z,102574.37999999999
2023-02-15T09:56:50.047Z,102574.76999999999
2023-02-15T09:59:22.206Z,102580.42
2023-02-15T10:01:52.307Z,102581.21
2023-02-15T10:04:29.896Z,102578.2
2023-02-15T10:06:48.900Z,102580.45999999999
2023-02-15T10:09:27.895Z,102579.93
2023-02-15T10:11:57.413Z,102579.37
2023-02-15T10:14:24.248Z,102576.18
2023-02-15T10:16:53.040Z,102578.67000000001
2023-02-15T10:19:19.811Z,102577.64
2023-02-15T10:21:57.913Z,102579.54
2023-02-15T10:24:28.492Z,102575.48999999999
2023-02-15T10:26:44.808Z,102571.84
2023-02-15T10:29:27.906Z,102574.65999999999
2023-02-15T10:31:48.997Z,102565.81000000001
2023-02-15T10:34:17.615Z,102567.85
2023-02-15T10:36:59.251Z,102559.53
2023-02-15T10:39:24.376Z,102563.82
2023-02-15T10:41:50.759Z,102562.06
2023-02-15T10:44:27.338Z,102562.7
2023-02-15T10:47:00.277Z,102562.71999999999
2023-02-15T10:49:23.654Z,102558.24
2023-02-15T10:51:58.105Z,102554.45999999999
2023-02-15T10:54:26.468Z,102550.79000000001
2023-02-15T10:56:51.031Z,102549.72
2023-02-15T10:59:31.704Z,102541.03
2023-02-15T11:01:50.381Z,102537.51
2023-02-15T11:04:32.703Z,102537.87
2023-02-15T11:06:48.677Z,102538.13
2023-02-15T11:09:15.862Z,102534.23
2023-02-15T11:11:47.320Z,102528.67000000001
2023-02-15T11:14:17.931Z,102531.65
2023-02-15T11:16:45.278Z,102531.85
2023-02-15T11:19:19.618Z,102527.88
2023-02-15T11:21:46.301Z,102522.71
2023-02-15T11:24:15.035Z,102519.58
2023-02-15T11:26:46.180Z,102514.62
2023-02-15T11:29:22.886Z,102512.06999999999
2023-02-15T11:31:45.268Z,102511.76000000001
2023-02-15T11:34:21.099Z,102508.62999999999
2023-02-15T11:36:43.697Z,102505.45999999999
2023-02-15T11:39:18.014Z,102506.81
2023-02-15T11:41:50.255Z,102499.84
2023-02-15T11:44:18.089Z,102490.12
2023-02-15T11:46:42.782Z,102485.83000000002
2023-02-15T11:49:26.220Z,102477.05
2023-02-15T11:51:43.037Z,102476.25
2023-02-15T11:54:12.528Z,102471.41999999998
2023-02-15T11:56:42.535Z,102474.6
2023-02-15T11:59:19.158Z,102477.2
2023-02-15T12:01:44.722Z,102476.48999999999
2023-02-15T12:04:20.775Z,102467.93000000001
2023-02-15T12:06:46.896Z,102461.54
2023-02-15T12:09:23.437Z,102454.06
2023-02-15T12:11:42.906Z,102443.59
2023-02-15T12:14:15.984Z,102446.25000000001
2023-02-15T12:16:45.643Z,102442.3
2023-02-15T12:19:27.432Z,102447.90000000001
2023-02-15T12:21:42.672Z,102431.98
2023-02-15T12:24:19.189Z,102424.65999999999
2023-02-15T12:26:43.408Z,102418.64
2023-02-15T12:29:16.690Z,102413.83
2023-02-15T12:31:46.018Z,102423.45
2023-02-15T12:34:19.226Z,102418.01000000001
2023-02-15T12:36:50.746Z,102414.18000000001
2023-02-15T12:39:19.627Z,102413.33
2023-02-15T12:41:46.313Z,102414.58
2023-02-15T12:44:19.011Z,102410.99999999999
2023-02-15T12:49:20.389Z,102409.22
2023-02-15T12:51:45.195Z,102412.44999999998
2023-02-15T12:54:28.841Z,102412.82
2023-02-15T12:56:42.711Z,102415.51999999999
2023-02-15T12:59:14.787Z,102420.8
2023-02-15T13:01:42.770Z,102418.48
2023-02-15T13:04:21.697Z,102426.20999999999
2023-02-15T13:06:49.110Z,102421.63
2023-02-15T13:09:17.855Z,102419.92
2023-02-15T13:11:44.962Z,102417.66
2023-02-15T13:14:18.391Z,102420.31
2023-02-15T13:16:45.736Z,102410.53
2023-02-15T13:19:16.717Z,102405.01999999999
2023-02-15T13:21:45.423Z,102402.93999999999
2023-02-15T13:24:20.940Z,102401.35
2023-02-15T13:26:47.058Z,102400.99
2023-02-15T13:29:21.915Z,102407.76000000001
2023-02-15T13:31:43.472Z,102399.75
2023-02-15T13:34:20.845Z,102393.87000000001
2023-02-15T13:36:52.671Z,102391.8
2023-02-15T13:39:25.307Z,102395.64
2023-02-15T13:41:53.408Z,102391.04999999999
2023-02-15T13:44:21.518Z,102387.48000000001
2023-02-15T13:46:55.269Z,102383.69
2023-02-15T13:49:26.888Z,102388.12000000001
2023-02-15T13:51:49.955Z,102386.01999999999
2023-02-15T13:54:32.182Z,102379.47
2023-02-15T13:56:55.116Z,102384.64
2023-02-15T13:59:24.036Z,102383.4
2023-02-15T14:01:48.295Z,102377.56000000001
2023-02-15T14:04:30.256Z,102373.77
2023-02-15T14:07:01.236Z,102364.5
2023-02-15T14:09:24.743Z,102365.39
2023-02-15T14:11:53.910Z,102355.7
2023-02-15T14:14:30.983Z,102352.59
2023-02-15T14:17:06.157Z,102354.67
2023-02-15T14:19:20.510Z,102358.04000000001
2023-02-15T14:21:49.511Z,102346.62
2023-02-15T14:24:23.809Z,102346.8
2023-02-15T14:26:49.609Z,102350.63
2023-02-15T14:29:22.987Z,102353.89
2023-02-15T14:31:46.205Z,102351.17
2023-02-15T14:34:22.340Z,102351.15
2023-02-15T14:36:42.671Z,102354.8
2023-02-15T14:39:35.718Z,102344.89
2023-02-15T14:41:50.174Z,102345.72
2023-02-15T14:44:21.374Z,102344.87000000001
2023-02-15T14:46:51.150Z,102347.14
2023-02-15T14:49:15.752Z,102347.55
2023-02-15T14:51:56.756Z,102344.62
2023-02-15T14:54:33.564Z,102337.81
2023-02-15T14:56:44.288Z,102332.76
2023-02-15T14:59:17.701Z,102329.47
2023-02-15T15:01:52.807Z,102324.65999999999
2023-02-15T15:04:22.739Z,102321.17
2023-02-15T15:06:43.788Z,102326.53
2023-02-15T15:09:20.219Z,102321.86
2023-02-15T15:11:46.137Z,102323.44
2023-02-15T15:14:32.420Z,102318.24
2023-02-15T15:16:50.092Z,102320.86
2023-02-15T15:19:50.756Z,102326.51
2023-02-15T15:21:53.480Z,102324.39
2023-02-15T15:24:32.344Z,102327.0
2023-02-15T15:26:47.048Z,102325.03
2023-02-15T15:29:12.908Z,102318.36
2023-02-15T15:31:50.813Z,102307.79
2023-02-15T15:34:21.911Z,102305.74
2023-02-15T15:37:02.415Z,102304.8
2023-02-15T15:39:31.042Z,102314.23
2023-02-15T15:41:48.522Z,102308.68000000001
2023-02-15T15:44:32.449Z,102303.61
2023-02-15T15:46:59.198Z,102304.85
2023-02-15T15:49:16.082Z,102307.97
2023-02-15T15:51:44.484Z,102305.1
2023-02-15T15:54:16.794Z,102305.19
2023-02-15T15:56:46.825Z,102308.34999999999
2023-02-15T15:59:19.014Z,102300.0
2023-02-15T16:01:44.852Z,102303.9
2023-02-15T16:04:21.983Z,102299.63
2023-02-15T16:06:44.772Z,102292.46
2023-02-15T16:09:17.593Z,102283.56
2023-02-15T16:11:43.624Z,102277.98
2023-02-15T16:14:16.379Z,102281.95
2023-02-15T16:16:51.701Z,102284.19
2023-02-15T16:19:20.223Z,102290.36
2023-02-15T16:21:42.713Z,102292.04999999999
2023-02-15T16:24:24.907Z,102288.06
2023-02-15T16:26:58.444Z,102287.81999999999
2023-02-15T16:29:15.504Z,102285.70999999999
2023-02-15T16:31:43.168Z,102289.9
2023-02-15T16:34:17.640Z,102287.39
2023-02-15T16:36:42.626Z,102284.58
2023-02-15T16:39:21.118Z,102287.7
2023-02-15T16:41:46.267Z,102284.17
2023-02-15T16:44:17.620Z,102285.96
2023-02-15T16:49:17.121Z,102298.86
2023-02-15T16:51:44.817Z,102305.43000000001
2023-02-15T16:54:19.475Z,102301.45
2023-02-15T16:56:44.762Z,102297.0
2023-02-15T16:59:25.937Z,102300.01999999999
2023-02-15T17:01:44.987Z,102303.45999999999
2023-02-15T17:04:23.106Z,102307.64
2023-02-15T17:06:58.631Z,102318.45
2023-02-15T17:09:18.284Z,102318.52
2023-02-15T17:11:43.785Z,102323.77
2023-02-15T17:14:21.157Z,102323.05
2023-02-15T17:16:48.919Z,102324.95
2023-02-15T17:19:15.759Z,102325.19
2023-02-15T17:21:48.905Z,102322.0
2023-02-15T17:24:17.620Z,102323.65999999999
2023-02-15T17:26:42.749Z,102330.7
2023-02-15T17:29:24.132Z,102330.21
2023-02-15T17:31:48.947Z,102329.44
2023-02-15T17:34:32.581Z,102331.64
2023-02-15T17:36:57.338Z,102337.08
2023-02-15T17:39:22.138Z,102338.28
2023-02-15T17:41:42.954Z,102336.5
2023-02-15T17:44:15.327Z,102332.65
2023-02-15T17:46:43.764Z,102340.55
2023-02-15T17:49:22.903Z,102343.0
2023-02-15T17:51:42.883Z,102339.18
2023-02-15T17:54:22.546Z,102338.7
2023-02-15T17:56:42.670Z,102335.88
2023-02-15T17:59:14.197Z,102334.42
2023-02-15T18:01:55.476Z,102329.81
2023-02-15T18:04:24.312Z,102326.09
2023-02-15T18:06:53.063Z,102321.57999999999
2023-02-15T18:09:24.864Z,102324.3
2023-02-15T18:11:47.619Z,102327.17
2023-02-15T18:19:16.655Z,102339.48000000001
2023-02-15T18:21:43.660Z,102340.25
2023-02-15T18:24:17.372Z,102336.81
2023-02-15T18:26:42.853Z,102336.94
2023-02-15T18:29:13.168Z,102330.08
2023-02-15T18:31:45.219Z,102323.22
2023-02-15T18:34:22.360Z,102323.99
2023-02-15T18:39:26.199Z,102329.47
2023-02-15T18:41:42.751Z,102327.4
2023-02-15T18:44:13.314Z,102326.12000000001
2023-02-15T18:46:42.751Z,102321.83
2023-02-15T18:49:13.114Z,102320.0
2023-02-15T18:51:43.680Z,102319.09000000001
2023-02-15T18:56:43.043Z,102321.94
2023-02-15T18:59:15.345Z,102319.22
2023-02-15T19:04:12.714Z,102310.08
2023-02-15T19:06:45.524Z,102306.92
2023-02-15T19:09:16.446Z,102304.98999999999
2023-02-15T19:11:47.737Z,102303.49
2023-02-15T19:14:24.462Z,102303.27
2023-02-15T19:19:13.099Z,102295.03
2023-02-15T19:21:42.717Z,102302.67
2023-02-15T19:24:16.512Z,102308.77
2023-02-15T19:26:46.018Z,102302.66
2023-02-15T19:29:16.019Z,102298.35
2023-02-15T19:31:43.263Z,102298.86
2023-02-15T19:34:15.718Z,102299.42
2023-02-15T19:39:23.771Z,102293.25
2023-02-15T19:41:43.220Z,102292.8
2023-02-15T19:44:12.808Z,102289.72
2023-02-15T19:46:42.701Z,102285.1
2023-02-15T19:49:13.163Z,102280.74
2023-02-15T19:51:43.201Z,102276.51
2023-02-15T19:56:42.691Z,102279.40999999999
2023-02-15T19:59:23.144Z,102272.18000000001
2023-02-15T20:01:42.928Z,102269.44
2023-02-15T20:04:14.050Z,102269.48
2023-02-15T20:06:42.938Z,102265.83
2023-02-15T20:09:19.128Z,102266.93000000001
2023-02-15T20:11:42.844Z,102260.36
2023-02-15T20:14:13.529Z,102259.11
2023-02-15T20:16:42.877Z,102253.94
2023-02-15T20:19:13.197Z,102258.06999999999
2023-02-15T20:21:45.647Z,102253.78
2023-02-15T20:24:15.227Z,102260.65
2023-02-15T20:26:43.132Z,102252.47
2023-02-15T20:34:13.456Z,102241.16
2023-02-15T20:36:43.346Z,102236.87999999999
2023-02-15T20:39:15.264Z,102238.33
2023-02-15T20:41:46.662Z,102242.72
2023-02-15T20:44:18.739Z,102244.69
2023-02-15T20:46:43.082Z,102245.56999999999
2023-02-15T20:49:13.136Z,102252.62
2023-02-15T20:51:43.609Z,102253.72
2023-02-15T20:54:15.451Z,102253.72
2023-02-15T20:56:43.800Z,102248.22
2023-02-15T20:59:20.191Z,102255.24
2023-02-15T21:01:42.880Z,102250.31999999999
2023-02-15T21:04:17.374Z,102251.81
2023-02-15T21:06:42.772Z,102259.91
2023-02-15T21:09:13.561Z,102257.84
2023-02-15T21:11:44.116Z,102257.83
2023-02-15T21:14:17.878Z,102265.51
2023-02-15T21:16:42.765Z,102265.26
2023-02-15T21:19:14.176Z,102269.95
2023-02-15T21:21:44.308Z,102265.61
2023-02-15T21:24:15.164Z,102264.28
2023-02-15T21:26:45.187Z,102262.67
2023-02-15T21:29:15.255Z,102264.79000000001
2023-02-15T21:31:43.130Z,102259.12
2023-02-15T21:34:13.898Z,102259.40000000001
2023-02-15T21:36:44.229Z,102257.42
2023-02-15T21:39:16.995Z,102258.91
2023-02-15T21:41:56.238Z,102255.52
2023-02-15T21:44:26.159Z,102251.5
2023-02-15T21:46:52.830Z,102256.8
2023-02-15T21:49:12.856Z,102261.03
2023-02-15T21:51:52.842Z,102254.1
2023-02-15T21:54:13.896Z,102250.84000000001
2023-02-15T21:56:43.305Z,102249.25
2023-02-15T21:59:14.575Z,102242.92
2023-02-15T22:01:46.861Z,102242.89
2023-02-15T22:04:18.943Z,102245.17
2023-02-15T22:06:42.910Z,102241.52
2023-02-15T22:09:15.689Z,102243.97
2023-02-15T22:11:45.305Z,102247.29999999999
2023-02-15T22:14:32.538Z,102243.07
2023-02-15T22:16:42.866Z,102244.17
2023-02-15T22:19:18.856Z,102244.03
2023-02-15T22:21:42.763Z,102249.3
2023-02-15T22:24:12.997Z,102244.6
2023-02-15T22:26:44.644Z,102243.72
2023-02-15T22:29:15.573Z,102248.20999999999
2023-02-15T22:31:43.762Z,102247.85
2023-02-15T22:34:24.781Z,102245.84999999999
2023-02-15T22:36:42.948Z,102250.45999999999
2023-02-15T22:39:12.759Z,102246.83
2023-02-15T22:41:42.967Z,102247.01
2023-02-15T22:44:16.755Z,102238.87
2023-02-15T22:46:42.982Z,102239.28
2023-02-15T22:49:14.182Z,102238.98000000001
2023-02-15T22:51:45.257Z,102238.13
2023-02-15T22:56:46.421Z,102235.41
2023-02-15T22:59:18.628Z,102234.39
2023-02-15T23:01:42.836Z,102228.8
2023-02-15T23:04:17.408Z,102229.35
2023-02-15T23:06:42.954Z,102230.66
2023-02-15T23:09:13.824Z,102233.81000000001
2023-02-15T23:11:44.995Z,102235.13
2023-02-15T23:14:24.401Z,102245.26
2023-02-15T23:16:42.879Z,102249.34
2023-02-15T23:19:14.585Z,102246.75
2023-02-15T23:21:43.125Z,102249.87999999999
2023-02-15T23:24:18.314Z,102249.22
2023-02-15T23:26:43.187Z,102246.47
2023-02-15T23:29:15.405Z,102242.3
2023-02-15T23:31:45.752Z,102245.84
2023-02-15T23:34:16.122Z,102248.1
2023-02-15T23:36:43.463Z,102241.69
2023-02-15T23:39:24.908Z,102245.59000000001
2023-02-15T23:41:42.862Z,102244.42
2023-02-15T23:44:13.220Z,102251.64
2023-02-15T23:49:16.339Z,102247.2
2023-02-15T23:51:45.251Z,102248.91
2023-02-15T23:56:46.300Z,102243.98
2023-02-15T23:59:17.189Z,102242.47
